Observations for GLASGOW AIRPORT, United Kingdom (EGPF)

EGPF 241520Z AUTO 10010KT 9999 NCD 06/M04 Q1025 
EGPF 241450Z AUTO 10010KT 9999 NCD 06/M04 Q1025 
EGPF 241420Z AUTO 09011KT 9999 NCD 06/M04 Q1025 
EGPF 241350Z AUTO 11010KT 9999 NCD 06/M03 Q1025 
EGPF 241320Z AUTO 11010G22KT 080V140 9999 NCD 05/M03 Q1025  
EGPF 241250Z AUTO 11012KT 030V140 9999 NCD 05/M03 Q1025 
EGPF 241220Z AUTO 11012KT 9999 NCD 05/M03 Q1025 
EGPF 241150Z AUTO 10012KT 9999 NCD 04/M03 Q1025 
EGPF 241120Z AUTO 09011KT 9999 NCD 03/M03 Q1025 
EGPF 241050Z AUTO 10008KT 9999 NCD 03/M03 Q1025 
EGPF 241020Z AUTO 08007KT 030V100 9999 NCD 02/M03 Q1025 
EGPF 240950Z AUTO 07009KT 9999 NCD 02/M03 Q1025 
EGPF 240920Z AUTO 08007KT 9999 NCD 01/M03 Q1025 
EGPF 240850Z AUTO 06005KT 030V100 9999 NCD M00/M03 Q1024
EGPF 240820Z AUTO 07007KT 9999 NCD M01/M04 Q1024
EGPF 240750Z AUTO 06006KT 9999 NCD M01/M04 Q1024
EGPF 240720Z AUTO 07007KT 9999 NCD M02/M04 Q1023
EGPF 240650Z AUTO 08007KT 9999 NCD M01/M04 Q1023
EGPF 240620Z AUTO 07007KT 9999 NCD M01/M04 Q1023
EGPF 240550Z AUTO 08007KT 9999 NCD M01/M04 Q1023
EGPF 240520Z AUTO 06007KT 9999 NCD M01/M04 Q1022
EGPF 240450Z AUTO 04005KT 9999 NCD M02/M05 Q1022
EGPF 240420Z AUTO 07007KT 9999 NCD M01/M04 Q1022
EGPF 240350Z AUTO 07006KT 9999 NCD M01/M04 Q1022
EGPF 240320Z AUTO 10009KT 9999 NCD 00/M04 Q1021 
EGPF 240250Z AUTO 10006KT 9999 NCD M00/M04 Q1021
EGPF 240220Z AUTO 09008KT 9999 NCD 00/M04 Q1021 
EGPF 240150Z AUTO 10008KT 9999 NCD 01/M04 Q1021 
EGPF 240120Z AUTO 10009KT 9999 NCD 01/M03 Q1021 
EGPF 240050Z AUTO 09010KT 9999 NCD 01/M03 Q1021 
EGPF 240020Z AUTO 09007KT 9999 FEW029 01/M03 Q1021  
EGPF 232350Z AUTO 06006KT 9999 SCT027 00/M03 Q1021  
EGPF 232320Z AUTO 07008KT 9999 FEW029 01/M03 Q1021  
EGPF 232250Z AUTO 05007KT 9999 NCD 00/M02 Q1021 
EGPF 232220Z AUTO 05008KT 9999 NCD 01/M02 Q1020 
EGPF 232150Z AUTO 07006KT 040V110 9999 NCD 01/M02 Q1020 
EGPF 232120Z AUTO 05008KT 9999 NCD 01/M02 Q1020 
EGPF 232050Z AUTO 04008KT 9999 NCD 01/M02 Q1020 
EGPF 232020Z AUTO 09007KT 9999 NCD 03/M02 Q1020 
EGPF 231950Z AUTO 11008KT 9999 NCD 03/M02 Q1020 
EGPF 231920Z AUTO 10007KT 9999 NCD 03/M02 Q1020 
EGPF 231850Z AUTO 10007KT 9999 NCD 03/M02 Q1020 
EGPF 231820Z AUTO 10006KT 9999 NCD 03/M02 Q1020 
EGPF 231750Z AUTO 10008KT 9999 NCD 04/M02 Q1020 
EGPF 231720Z AUTO 11007KT 070V150 9999 NCD 04/M02 Q1020 
EGPF 231650Z AUTO 12010KT 9999 NCD 04/M02 Q1020 
EGPF 231620Z AUTO 12010KT 070V150 9999 NCD 05/M01 Q1020 
EGPF 231550Z AUTO 13008KT 100V170 9999 NCD 05/M02 Q1020 
EGPF 231520Z AUTO 15011KT 9999 NCD 05/M02 Q1020 
EGPF 231450Z AUTO 15013KT 9999 FEW036 05/M02 Q1020